createdAt,value
2022-12-04T17:28:12.523Z,18.880000000000003
2022-12-04T17:33:47.704Z,12.6
2022-12-04T17:39:24.877Z,12.319999999999999
2022-12-04T17:53:56.714Z,12.319999999999999
2022-12-04T17:59:31.876Z,13.940000000000001
2022-12-04T18:05:07.045Z,10.66
2022-12-04T18:10:42.210Z,11.9
2022-12-04T18:16:18.427Z,11.320000000000002
2022-12-04T18:21:53.526Z,12
2022-12-04T18:27:28.671Z,16.880000000000003
2022-12-04T18:33:03.844Z,12.120000000000001
2022-12-04T18:38:39.005Z,13.219999999999999
2022-12-04T18:44:15.146Z,9.56
2022-12-04T18:49:50.294Z,9.020000000000001
2022-12-04T18:55:25.493Z,9.48
2022-12-04T19:01:04.666Z,8.42
2022-12-04T19:06:41.836Z,10.52
2022-12-04T19:12:17.961Z,10.02
2022-12-04T19:17:53.190Z,8.579999999999998
2022-12-04T19:23:28.304Z,9.94
2022-12-04T19:29:04.431Z,8.620000000000001
2022-12-04T19:34:39.628Z,10.040000000000001
2022-12-04T19:40:14.777Z,19.5
2022-12-04T19:45:49.995Z,21.06
2022-12-04T19:51:26.101Z,13.080000000000002
2022-12-04T19:57:02.215Z,10.52
2022-12-04T20:02:37.412Z,7.840000000000001
2022-12-04T20:13:47.734Z,7.159999999999999
2022-12-04T20:19:22.860Z,8.879999999999999
2022-12-04T20:24:58.083Z,11.3
2022-12-04T20:30:33.268Z,5.819999999999999
2022-12-04T20:36:08.728Z,8.059999999999999
2022-12-04T20:41:44.503Z,7.1
2022-12-04T20:47:19.697Z,4.48
2022-12-04T20:52:54.834Z,5.140000000000001
2022-12-04T20:58:30.019Z,4.220000000000001
2022-12-04T21:04:05.189Z,5.56
2022-12-04T21:09:41.325Z,4.6
2022-12-04T21:15:16.495Z,4.88
2022-12-04T21:20:52.126Z,5.279999999999999
2022-12-04T21:26:27.796Z,4.3
2022-12-04T21:32:03.004Z,4.68
2022-12-04T21:37:38.134Z,3.7800000000000002
2022-12-04T21:43:13.339Z,3.8600000000000003
2022-12-04T21:48:48.511Z,4.18
2022-12-04T21:54:23.632Z,3.7400000000000007
2022-12-04T21:59:59.124Z,3.8
2022-12-04T22:05:33.968Z,3
2022-12-04T22:11:13.108Z,2.7800000000000002
2022-12-04T22:16:50.261Z,3.3200000000000003
2022-12-04T22:22:25.492Z,3.4799999999999995
2022-12-04T22:28:00.602Z,3
2022-12-04T22:33:35.759Z,2.8
2022-12-04T22:39:11.263Z,2.34
2022-12-04T22:44:46.085Z,2.22
2022-12-04T22:50:21.221Z,3.1
2022-12-04T22:55:56.416Z,2.46
2022-12-04T23:01:32.564Z,2.72
2022-12-04T23:07:07.767Z,2.92
2022-12-04T23:12:42.899Z,2.48
2022-12-04T23:18:18.028Z,2.6800000000000006
2022-12-04T23:23:54.232Z,2.5
2022-12-04T23:29:51.928Z,3
2022-12-04T23:35:27.490Z,2.86
2022-12-04T23:41:02.650Z,2.52
2022-12-04T23:46:37.859Z,2.3
2022-12-04T23:52:12.962Z,1.9600000000000002
2022-12-04T23:57:48.131Z,2.1199999999999997
